Time;durP1;ratioP1;P1;durP2;ratioP2;P2;SDS_P1;SDS_P2;PMS_P1;PMS_P2;Temp;Humidity;BMP_temperature;BMP_pressure;BME280_temperature;BME280_humidity;BME280_pressure;Samples;Min_cycle;Max_cycle;Signal;HPM_P1;HPM_P2
2021/11/05 00:00:57;;;;;;;9.80;6.57;;;6.40;99.90;;;;;;5059233;28;20079;-70
2021/11/05 00:03:22;;;;;;;9.32;6.05;;;6.50;99.90;;;;;;5054970;28;20643;-70
2021/11/05 00:05:48;;;;;;;7.65;5.70;;;6.40;99.90;;;;;;5087294;27;20071;-70
2021/11/05 00:08:14;;;;;;;14.52;5.75;;;6.50;99.90;;;;;;5055515;28;20107;-70
2021/11/05 00:10:42;;;;;;;12.77;5.03;;;6.50;99.90;;;;;;5055855;28;20041;-70
2021/11/05 00:13:08;;;;;;;8.93;6.00;;;6.50;99.90;;;;;;5056676;28;20044;-70
2021/11/05 00:15:34;;;;;;;10.23;5.70;;;6.50;99.90;;;;;;5057369;28;20036;-70
2021/11/05 00:18:00;;;;;;;8.77;6.05;;;6.50;99.90;;;;;;5056781;28;20527;-70
2021/11/05 00:20:27;;;;;;;11.68;4.47;;;6.50;99.90;;;;;;5087389;28;20095;-70
2021/11/05 00:22:52;;;;;;;9.85;5.05;;;6.50;99.90;;;;;;5051303;28;20052;-70
2021/11/05 00:25:19;;;;;;;10.88;5.65;;;6.60;99.90;;;;;;5056554;28;20063;-70
2021/11/05 00:27:46;;;;;;;6.82;4.85;;;6.60;99.90;;;;;;5056600;28;20136;-70
2021/11/05 00:30:15;;;;;;;6.65;4.15;;;6.60;99.90;;;;;;5056368;28;20037;-70
2021/11/05 00:32:44;;;;;;;9.80;4.45;;;6.60;99.90;;;;;;5072470;28;20043;-70
2021/11/05 00:35:11;;;;;;;7.72;4.35;;;6.50;99.90;;;;;;5053530;28;20060;-70
2021/11/05 00:37:37;;;;;;;6.78;3.88;;;6.50;99.90;;;;;;5058020;28;20049;-70
2021/11/05 00:40:08;;;;;;;9.45;3.83;;;6.50;99.90;;;;;;5055751;28;20048;-70
2021/11/05 00:42:34;;;;;;;5.15;3.85;;;6.50;99.90;;;;;;5056067;28;20044;-70
2021/11/05 00:45:00;;;;;;;7.50;3.70;;;6.60;99.90;;;;;;5059335;28;20028;-70
2021/11/05 00:47:26;;;;;;;6.80;3.80;;;6.60;99.90;;;;;;5053197;28;20041;-70
2021/11/05 00:49:51;;;;;;;5.57;3.78;;;6.70;99.90;;;;;;5060555;28;20453;-70
2021/11/05 00:52:17;;;;;;;5.80;3.60;;;6.60;99.90;;;;;;5055504;28;20059;-70
2021/11/05 00:54:43;;;;;;;7.50;3.67;;;6.60;99.90;;;;;;5058012;28;20040;-70
2021/11/05 00:57:09;;;;;;;6.95;3.47;;;6.70;99.90;;;;;;5052562;28;20045;-70
2021/11/05 00:59:35;;;;;;;7.93;3.35;;;6.60;99.90;;;;;;5055648;28;20766;-70
2021/11/05 01:02:00;;;;;;;6.75;3.40;;;6.70;99.90;;;;;;5055553;28;20097;-70
2021/11/05 01:04:26;;;;;;;8.55;3.00;;;6.60;99.90;;;;;;5086030;28;20047;-70
2021/11/05 01:06:51;;;;;;;3.78;2.47;;;6.70;99.90;;;;;;5058192;28;20504;-70
2021/11/05 01:09:17;;;;;;;7.57;2.78;;;6.70;99.90;;;;;;5052745;28;20086;-70
2021/11/05 01:11:43;;;;;;;4.88;2.42;;;6.70;99.90;;;;;;5056137;28;20502;-70
2021/11/05 01:14:08;;;;;;;6.47;2.53;;;6.60;99.90;;;;;;5055212;28;20086;-70
2021/11/05 01:16:34;;;;;;;6.72;3.33;;;6.60;99.90;;;;;;5052478;28;20479;-70
2021/11/05 01:19:00;;;;;;;3.80;2.45;;;6.60;99.90;;;;;;5058080;28;20136;-70
2021/11/05 01:21:27;;;;;;;3.70;1.98;;;6.60;99.90;;;;;;5057550;28;20032;-70
2021/11/05 01:23:54;;;;;;;9.00;2.50;;;6.50;99.90;;;;;;5054527;28;20056;-70
2021/11/05 01:26:20;;;;;;;6.25;2.92;;;6.50;99.90;;;;;;5053903;28;20047;-70
2021/11/05 01:28:47;;;;;;;6.53;2.38;;;6.40;99.90;;;;;;5055229;28;20135;-70
2021/11/05 01:31:12;;;;;;;5.25;2.53;;;6.40;99.90;;;;;;5055153;28;20032;-70
2021/11/05 01:33:38;;;;;;;4.18;1.88;;;6.40;99.90;;;;;;5059140;28;20055;-70
2021/11/05 01:36:04;;;;;;;6.38;2.20;;;6.30;99.90;;;;;;5061103;28;20388;-70
2021/11/05 01:38:30;;;;;;;6.90;2.20;;;6.30;99.90;;;;;;5059520;28;20040;-70
2021/11/05 01:40:55;;;;;;;3.40;1.95;;;6.30;99.90;;;;;;5056510;28;20145;-70
2021/11/05 01:43:21;;;;;;;7.10;2.17;;;6.30;99.90;;;;;;5057179;28;20032;-70
2021/11/05 01:45:48;;;;;;;6.60;2.20;;;6.30;99.90;;;;;;5059372;28;20044;-70
2021/11/05 01:48:14;;;;;;;8.43;2.25;;;6.30;99.90;;;;;;5056981;28;20045;-70
2021/11/05 01:50:40;;;;;;;8.98;2.00;;;6.20;99.90;;;;;;5056394;28;20044;-70
2021/11/05 01:53:06;;;;;;;9.77;2.00;;;6.30;99.90;;;;;;5054901;28;20048;-70
2021/11/05 01:55:32;;;;;;;10.27;2.45;;;6.20;99.90;;;;;;5057879;28;20063;-70
2021/11/05 01:57:57;;;;;;;4.22;2.30;;;6.20;99.90;;;;;;5055594;28;20052;-70
2021/11/05 02:00:26;;;;;;;7.38;1.95;;;6.20;99.90;;;;;;5058788;28;20051;-70
2021/11/05 02:02:52;;;;;;;6.88;1.88;;;6.20;99.90;;;;;;5056979;28;20132;-70
2021/11/05 02:05:19;;;;;;;6.55;1.50;;;6.20;99.90;;;;;;5060846;28;20484;-70
2021/11/05 02:07:57;;;;;;;9.52;2.40;;;6.20;99.90;;;;;;5060494;28;20483;-70
2021/11/05 02:10:25;;;;;;;9.18;2.20;;;6.30;99.90;;;;;;5058029;28;20127;-69
2021/11/05 02:12:52;;;;;;;5.70;2.13;;;6.20;99.90;;;;;;5056706;28;20059;-70
2021/11/05 02:15:19;;;;;;;6.68;1.80;;;6.20;99.90;;;;;;5056408;28;20114;-70
2021/11/05 02:17:46;;;;;;;8.18;1.77;;;6.20;99.90;;;;;;5062313;28;20046;-70
2021/11/05 02:20:14;;;;;;;7.05;2.13;;;6.10;99.90;;;;;;5056451;28;20071;-70
2021/11/05 02:22:41;;;;;;;5.63;1.80;;;6.10;99.90;;;;;;5055617;28;20076;-70
2021/11/05 02:25:07;;;;;;;6.63;1.92;;;6.10;99.90;;;;;;5060366;28;20513;-70
2021/11/05 02:27:33;;;;;;;7.75;1.42;;;6.10;99.90;;;;;;5057652;28;20040;-70
2021/11/05 02:30:00;;;;;;;5.32;2.15;;;6.10;99.90;;;;;;5065089;28;20494;-70
2021/11/05 02:32:26;;;;;;;8.32;1.92;;;6.10;99.90;;;;;;5058240;28;20060;-70
2021/11/05 02:34:52;;;;;;;8.23;2.00;;;6.10;99.90;;;;;;5056730;28;20033;-70
2021/11/05 02:37:25;;;;;;;8.82;1.95;;;6.10;99.90;;;;;;5058051;28;20428;-70
2021/11/05 02:39:52;;;;;;;13.27;2.15;;;6.10;99.90;;;;;;5094252;27;20178;-70
2021/11/05 02:42:18;;;;;;;6.40;1.77;;;6.10;99.90;;;;;;5055040;28;20497;-70
2021/11/05 02:44:44;;;;;;;13.70;1.77;;;6.10;99.90;;;;;;5055030;28;20043;-70
2021/11/05 02:47:16;;;;;;;9.25;1.40;;;6.10;99.90;;;;;;5055580;28;20041;-70
2021/11/05 02:49:43;;;;;;;5.95;2.00;;;6.10;99.90;;;;;;5056669;28;20040;-70
2021/11/05 02:52:09;;;;;;;4.20;1.30;;;6.00;99.90;;;;;;5091656;27;20092;-70
2021/11/05 02:54:35;;;;;;;7.22;1.55;;;6.10;99.90;;;;;;5056119;28;20152;-70
2021/11/05 02:57:00;;;;;;;8.10;2.20;;;6.10;99.90;;;;;;5055366;28;20055;-70
2021/11/05 02:59:26;;;;;;;9.40;2.13;;;6.10;99.90;;;;;;5057609;28;20044;-70
2021/11/05 03:01:52;;;;;;;5.03;1.90;;;6.10;99.90;;;;;;5058252;28;20372;-70
2021/11/05 03:04:21;;;;;;;8.32;1.90;;;6.20;99.90;;;;;;5054849;28;20102;-70
2021/11/05 03:06:47;;;;;;;7.05;1.70;;;6.20;99.90;;;;;;5087705;27;20127;-70
2021/11/05 03:09:15;;;;;;;5.80;2.05;;;6.20;99.90;;;;;;5054920;28;20045;-70
2021/11/05 03:11:42;;;;;;;7.43;1.50;;;6.20;99.90;;;;;;5057699;28;20047;-70
2021/11/05 03:14:08;;;;;;;8.93;2.10;;;6.30;99.90;;;;;;5055164;28;20131;-70
2021/11/05 03:16:34;;;;;;;9.52;1.63;;;6.30;99.90;;;;;;5056892;28;20107;-70
2021/11/05 03:19:01;;;;;;;7.65;1.55;;;6.40;99.90;;;;;;5057793;28;20040;-70
2021/11/05 03:21:27;;;;;;;5.97;1.65;;;6.30;99.90;;;;;;5058885;28;20060;-70
2021/11/05 03:23:53;;;;;;;5.20;1.52;;;6.40;99.90;;;;;;5056656;28;20132;-70
2021/11/05 03:26:18;;;;;;;9.70;1.67;;;6.70;99.90;;;;;;5058220;28;20041;-70
2021/11/05 03:28:44;;;;;;;6.18;1.33;;;6.50;99.90;;;;;;5057151;28;20052;-70
2021/11/05 03:31:09;;;;;;;5.88;1.48;;;6.50;99.90;;;;;;5060528;28;20052;-70
2021/11/05 03:33:35;;;;;;;5.32;1.40;;;6.60;99.90;;;;;;5043210;28;20041;-70
2021/11/05 03:36:01;;;;;;;8.48;1.50;;;6.60;99.90;;;;;;5066725;28;20044;-70
2021/11/05 03:38:27;;;;;;;8.45;0.98;;;6.60;99.90;;;;;;5063642;28;20130;-70
2021/11/05 03:40:52;;;;;;;8.25;1.73;;;6.70;99.90;;;;;;5062176;28;20132;-70
2021/11/05 03:43:18;;;;;;;8.98;1.88;;;6.70;99.90;;;;;;5063080;28;20082;-70
2021/11/05 03:45:44;;;;;;;12.45;1.30;;;6.70;99.90;;;;;;5060846;28;20037;-70
2021/11/05 03:48:10;;;;;;;6.55;1.17;;;6.70;99.90;;;;;;5063127;28;20036;-70
2021/11/05 03:50:36;;;;;;;5.72;1.23;;;6.80;99.90;;;;;;5062285;28;20056;-70
2021/11/05 03:53:02;;;;;;;7.40;1.17;;;6.80;99.90;;;;;;5062159;28;20123;-70
2021/11/05 03:55:28;;;;;;;6.97;0.75;;;6.90;99.90;;;;;;5062545;28;20163;-70
2021/11/05 03:57:53;;;;;;;4.88;0.85;;;6.90;99.90;;;;;;5066550;28;20126;-70
2021/11/05 04:00:20;;;;;;;6.93;1.55;;;6.90;99.90;;;;;;5061968;28;20135;-70
2021/11/05 04:02:46;;;;;;;7.63;1.00;;;6.90;99.90;;;;;;5061921;28;20158;-70
2021/11/05 04:05:12;;;;;;;4.90;1.00;;;6.90;99.90;;;;;;5064786;28;20055;-70
2021/11/05 04:07:39;;;;;;;6.65;1.35;;;7.00;99.90;;;;;;5062781;28;20466;-70
2021/11/05 04:10:05;;;;;;;5.40;0.80;;;6.90;99.90;;;;;;5062869;28;20055;-70
2021/11/05 04:12:31;;;;;;;6.60;1.20;;;6.90;99.90;;;;;;5063417;28;20127;-70
2021/11/05 04:14:56;;;;;;;7.15;1.55;;;6.80;99.90;;;;;;5062556;28;20182;-70
2021/11/05 04:17:22;;;;;;;3.85;0.75;;;6.80;99.90;;;;;;5047100;28;20389;-70
2021/11/05 04:19:48;;;;;;;8.55;0.77;;;6.80;99.90;;;;;;5076115;28;20392;-70
2021/11/05 04:22:14;;;;;;;4.78;0.70;;;6.80;99.90;;;;;;5062901;28;20843;-70
2021/11/05 04:24:39;;;;;;;6.07;1.08;;;6.80;99.90;;;;;;5059126;28;20037;-70
2021/11/05 04:27:05;;;;;;;11.48;1.08;;;6.80;99.90;;;;;;5050148;28;20082;-70
2021/11/05 04:29:32;;;;;;;10.18;1.13;;;6.80;99.90;;;;;;5062026;28;20077;-70
2021/11/05 04:31:58;;;;;;;16.55;1.13;;;6.80;99.90;;;;;;5063906;28;20105;-70
2021/11/05 04:34:24;;;;;;;8.65;1.40;;;6.80;99.90;;;;;;5060605;28;20044;-70
2021/11/05 04:36:50;;;;;;;9.65;1.60;;;6.80;99.90;;;;;;5062116;28;20418;-70
2021/11/05 04:39:17;;;;;;;7.60;1.55;;;6.90;99.90;;;;;;5063457;28;20048;-70
2021/11/05 04:41:43;;;;;;;11.68;1.30;;;6.90;99.90;;;;;;5076809;28;20040;-70
2021/11/05 04:44:09;;;;;;;12.65;2.20;;;6.90;99.90;;;;;;5060298;28;20382;-70
2021/11/05 04:46:35;;;;;;;11.85;1.58;;;6.90;99.90;;;;;;5064165;28;20037;-70
2021/11/05 04:49:01;;;;;;;8.95;1.35;;;7.00;99.90;;;;;;5076422;28;20051;-70
2021/11/05 04:51:26;;;;;;;6.22;1.17;;;7.00;99.90;;;;;;5062653;28;20036;-70
2021/11/05 04:53:52;;;;;;;9.95;2.05;;;7.00;99.90;;;;;;5058127;28;20127;-70
2021/11/05 04:56:18;;;;;;;7.78;1.42;;;7.10;99.90;;;;;;5060721;28;20555;-70
2021/11/05 04:58:43;;;;;;;9.15;1.52;;;7.10;99.90;;;;;;5065343;28;21983;-69
2021/11/05 05:01:10;;;;;;;10.48;1.98;;;7.20;99.90;;;;;;5062594;28;20048;-70
2021/11/05 05:03:35;;;;;;;9.20;1.10;;;7.20;99.90;;;;;;5064069;28;20047;-70
2021/11/05 05:06:01;;;;;;;13.85;1.70;;;7.20;99.90;;;;;;5097261;28;20044;-70
2021/11/05 05:08:27;;;;;;;10.88;1.30;;;7.20;99.90;;;;;;5063401;28;20151;-70
2021/11/05 05:10:53;;;;;;;12.73;1.42;;;7.20;99.90;;;;;;5062586;28;20123;-70
2021/11/05 05:13:18;;;;;;;8.23;1.63;;;7.20;99.90;;;;;;5058850;28;20045;-70
2021/11/05 05:15:44;;;;;;;9.82;1.65;;;7.20;99.90;;;;;;5061581;28;20110;-70
2021/11/05 05:18:15;;;;;;;8.50;1.52;;;7.10;99.90;;;;;;5059855;28;20502;-70
2021/11/05 05:20:41;;;;;;;8.23;1.35;;;7.10;99.90;;;;;;5091252;28;20049;-70
2021/11/05 05:23:06;;;;;;;9.50;1.52;;;7.10;99.90;;;;;;5089539;28;20068;-70
2021/11/05 05:25:32;;;;;;;7.22;1.30;;;7.10;99.90;;;;;;5061891;28;20070;-70
2021/11/05 05:27:58;;;;;;;4.38;1.20;;;7.00;99.90;;;;;;5063776;28;20466;-70
2021/11/05 05:30:23;;;;;;;8.30;1.25;;;7.00;99.90;;;;;;5063094;28;20037;-70
2021/11/05 05:32:50;;;;;;;6.82;1.45;;;7.00;99.90;;;;;;5061240;28;20033;-70
2021/11/05 05:35:17;;;;;;;11.10;2.15;;;7.00;99.90;;;;;;5060180;28;20368;-70
2021/11/05 05:37:43;;;;;;;12.20;2.17;;;7.00;99.90;;;;;;5060063;28;20121;-70
2021/11/05 05:40:10;;;;;;;10.38;1.33;;;7.00;99.90;;;;;;5062761;28;20124;-70
2021/11/05 05:42:36;;;;;;;9.27;1.65;;;7.00;99.90;;;;;;5058678;28;20037;-70
2021/11/05 05:45:04;;;;;;;16.25;1.65;;;7.10;99.90;;;;;;5064494;28;20066;-70
2021/11/05 05:47:29;;;;;;;5.85;1.42;;;7.10;99.90;;;;;;5064287;28;20048;-70
2021/11/05 05:49:55;;;;;;;15.13;1.25;;;7.20;99.90;;;;;;5064149;28;20630;-70
2021/11/05 05:52:20;;;;;;;9.48;1.25;;;7.20;99.90;;;;;;5059800;28;20040;-70
2021/11/05 05:54:46;;;;;;;11.70;1.48;;;7.10;99.90;;;;;;5062110;28;20052;-70
2021/11/05 05:57:12;;;;;;;9.27;1.30;;;7.20;99.90;;;;;;5060442;28;20043;-70
2021/11/05 05:59:38;;;;;;;5.65;1.10;;;7.10;99.90;;;;;;5057824;28;20613;-70
2021/11/05 06:02:04;;;;;;;8.65;1.70;;;7.10;99.90;;;;;;5058273;28;20037;-70
2021/11/05 06:04:29;;;;;;;8.18;1.42;;;7.10;99.90;;;;;;5056464;28;20138;-70
2021/11/05 06:06:55;;;;;;;9.95;1.30;;;7.10;99.90;;;;;;5057973;28;20072;-70
2021/11/05 06:09:21;;;;;;;7.32;1.00;;;7.10;99.90;;;;;;5060876;28;20055;-70
2021/11/05 06:11:46;;;;;;;9.32;1.17;;;7.00;99.90;;;;;;5061035;28;20036;-70
2021/11/05 06:14:13;;;;;;;6.38;1.20;;;7.00;99.90;;;;;;5054765;28;20044;-70
2021/11/05 06:16:40;;;;;;;8.00;1.70;;;7.00;99.90;;;;;;5054999;28;20086;-70
2021/11/05 06:19:06;;;;;;;10.88;1.40;;;7.00;99.90;;;;;;5057569;28;20055;-70
2021/11/05 06:21:32;;;;;;;13.45;1.42;;;7.00;99.90;;;;;;5056499;28;20044;-70
2021/11/05 06:23:58;;;;;;;5.38;1.15;;;7.00;99.90;;;;;;5056306;28;20095;-70
2021/11/05 06:26:23;;;;;;;6.40;1.27;;;7.00;99.90;;;;;;5059109;28;20032;-70
2021/11/05 06:28:49;;;;;;;8.02;1.08;;;7.00;99.90;;;;;;5064938;28;20049;-70
2021/11/05 06:31:15;;;;;;;8.77;1.55;;;7.00;99.90;;;;;;5058683;28;20124;-70
2021/11/05 06:33:41;;;;;;;9.43;0.95;;;7.00;99.90;;;;;;5055996;28;20059;-70
2021/11/05 06:36:06;;;;;;;7.38;1.13;;;7.00;99.90;;;;;;5058309;28;20037;-70
2021/11/05 06:38:32;;;;;;;14.75;1.77;;;7.00;99.90;;;;;;5059225;28;20123;-70
2021/11/05 06:40:58;;;;;;;6.18;1.00;;;6.90;99.90;;;;;;5058338;28;20051;-70
2021/11/05 06:43:24;;;;;;;6.72;1.13;;;7.00;99.90;;;;;;5039600;28;20040;-70
2021/11/05 06:45:50;;;;;;;8.18;1.10;;;7.00;99.90;;;;;;5059185;28;20037;-69
2021/11/05 06:48:16;;;;;;;12.57;1.17;;;7.00;99.90;;;;;;5057910;28;20131;-70
2021/11/05 06:50:42;;;;;;;8.23;1.67;;;7.00;99.90;;;;;;5060597;28;20039;-70
2021/11/05 06:53:09;;;;;;;7.47;1.20;;;7.00;99.90;;;;;;5055598;28;20119;-70
2021/11/05 06:55:35;;;;;;;8.10;1.00;;;7.00;99.90;;;;;;5089482;27;20169;-69
2021/11/05 06:58:01;;;;;;;11.65;1.52;;;7.00;99.90;;;;;;5059288;28;20542;-70
2021/11/05 07:00:28;;;;;;;10.52;1.67;;;7.10;99.90;;;;;;5056967;28;20056;-70
2021/11/05 07:02:54;;;;;;;12.55;1.33;;;7.00;99.90;;;;;;5056268;28;20050;-70
2021/11/05 07:05:22;;;;;;;12.00;1.38;;;7.00;99.90;;;;;;5056135;28;20540;-70
2021/11/05 07:07:48;;;;;;;10.20;1.52;;;7.00;99.90;;;;;;5058232;28;20041;-70
2021/11/05 07:10:14;;;;;;;5.35;0.90;;;7.00;99.90;;;;;;5054752;28;20422;-70
2021/11/05 07:12:41;;;;;;;13.57;1.65;;;6.90;99.90;;;;;;5053835;28;20053;-70
2021/11/05 07:15:10;;;;;;;14.25;1.65;;;6.90;99.90;;;;;;5058589;28;20670;-70
2021/11/05 07:17:36;;;;;;;9.65;1.85;;;6.90;99.90;;;;;;5057281;28;20060;-70
2021/11/05 07:20:04;;;;;;;10.15;1.63;;;6.90;99.90;;;;;;5056974;28;20049;-70
2021/11/05 07:22:30;;;;;;;22.35;1.88;;;6.90;99.90;;;;;;5055462;28;20052;-70
2021/11/05 07:24:56;;;;;;;7.60;1.10;;;6.90;99.90;;;;;;5057889;28;20029;-70
2021/11/05 07:27:23;;;;;;;6.78;1.33;;;6.90;99.90;;;;;;5059360;28;20075;-70
2021/11/05 07:29:49;;;;;;;7.72;1.33;;;6.90;99.90;;;;;;5054401;28;20048;-70
2021/11/05 07:32:15;;;;;;;8.88;1.33;;;6.90;99.90;;;;;;5086557;27;20040;-70
2021/11/05 07:34:41;;;;;;;6.70;1.08;;;6.90;99.90;;;;;;5055097;28;20048;-70
2021/11/05 07:37:11;;;;;;;9.65;1.33;;;7.00;99.90;;;;;;5055165;28;20075;-70
2021/11/05 07:39:37;;;;;;;13.70;1.05;;;7.00;99.90;;;;;;5056425;28;20060;-70
2021/11/05 07:42:02;;;;;;;7.97;1.10;;;6.90;99.90;;;;;;5053006;28;20072;-70
2021/11/05 07:44:28;;;;;;;10.45;1.33;;;7.00;99.90;;;;;;5054616;28;20056;-70
2021/11/05 07:46:54;;;;;;;9.05;0.98;;;7.00;99.90;;;;;;5056938;28;20045;-69
2021/11/05 07:49:19;;;;;;;7.28;1.58;;;7.10;99.90;;;;;;5058258;28;20053;-70
2021/11/05 07:51:45;;;;;;;5.88;1.40;;;7.10;99.90;;;;;;5054426;28;20047;-70
2021/11/05 07:54:11;;;;;;;7.05;1.10;;;7.20;99.90;;;;;;5041713;28;20053;-70
2021/11/05 07:56:37;;;;;;;5.18;1.13;;;7.30;99.90;;;;;;5058509;28;20085;-70
2021/11/05 07:59:04;;;;;;;7.25;1.20;;;7.40;99.90;;;;;;5055903;28;20414;-70
2021/11/05 08:01:30;;;;;;;7.25;0.90;;;7.60;99.90;;;;;;5054728;28;20729;-70
2021/11/05 08:03:56;;;;;;;7.50;1.30;;;7.70;99.90;;;;;;5054036;28;20194;-70
2021/11/05 08:06:22;;;;;;;9.82;1.10;;;7.80;99.90;;;;;;5052512;28;20043;-70
2021/11/05 08:08:48;;;;;;;7.40;0.93;;;7.90;99.90;;;;;;5056235;28;20086;-70
2021/11/05 08:11:14;;;;;;;5.20;1.45;;;8.00;99.90;;;;;;5055576;28;20032;-69
2021/11/05 08:13:41;;;;;;;5.15;0.90;;;8.10;99.90;;;;;;5051428;28;20068;-69
2021/11/05 08:16:07;;;;;;;7.05;0.80;;;8.20;99.90;;;;;;5053971;28;20063;-69
2021/11/05 08:18:33;;;;;;;6.43;0.95;;;8.30;99.90;;;;;;5054792;28;20170;-69
2021/11/05 08:21:00;;;;;;;10.52;1.25;;;8.40;99.90;;;;;;5056620;28;20661;-69
2021/11/05 08:23:26;;;;;;;4.32;1.35;;;8.50;99.90;;;;;;5052726;28;20052;-69
2021/11/05 08:25:51;;;;;;;7.50;0.95;;;8.60;99.90;;;;;;5085816;27;20131;-69
2021/11/05 08:28:19;;;;;;;6.57;1.20;;;8.60;99.90;;;;;;5052873;28;20151;-69
2021/11/05 08:30:46;;;;;;;10.52;1.45;;;8.70;99.90;;;;;;5053974;28;20106;-69
2021/11/05 08:33:12;;;;;;;7.68;0.93;;;8.80;99.90;;;;;;5052425;28;21452;-69
2021/11/05 08:35:40;;;;;;;9.18;1.10;;;8.80;99.90;;;;;;5055153;28;20048;-69
2021/11/05 08:38:08;;;;;;;5.30;0.65;;;8.90;99.90;;;;;;5055920;28;20074;-69
2021/11/05 08:40:35;;;;;;;4.38;0.85;;;8.90;99.90;;;;;;5056085;28;20050;-69
2021/11/05 08:43:01;;;;;;;5.90;0.70;;;9.00;99.90;;;;;;5053201;28;20051;-69
2021/11/05 08:45:26;;;;;;;7.28;0.70;;;9.00;99.90;;;;;;5035742;28;20045;-69
2021/11/05 08:47:55;;;;;;;7.47;0.90;;;9.10;99.90;;;;;;5054660;28;20052;-69
2021/11/05 08:50:24;;;;;;;3.63;0.50;;;9.10;99.90;;;;;;5053999;28;20041;-69
2021/11/05 08:52:51;;;;;;;5.15;1.00;;;9.10;99.90;;;;;;5052333;28;20056;-69
2021/11/05 08:55:17;;;;;;;4.43;1.00;;;9.20;99.90;;;;;;5052517;28;20040;-69
2021/11/05 08:57:43;;;;;;;7.63;0.90;;;9.60;99.90;;;;;;5056743;28;20071;-69
2021/11/05 09:00:22;;;;;;;5.35;0.60;;;9.50;99.90;;;;;;5053067;28;20043;-69
2021/11/05 09:02:48;;;;;;;5.75;0.80;;;9.30;99.90;;;;;;5050464;28;20087;-69
2021/11/05 09:05:15;;;;;;;6.35;0.82;;;9.40;99.90;;;;;;5053313;28;20554;-69
2021/11/05 09:07:41;;;;;;;6.93;1.00;;;9.50;99.90;;;;;;5053187;28;20036;-69
2021/11/05 09:10:08;;;;;;;6.68;0.45;;;9.60;99.90;;;;;;5051950;28;20413;-69
2021/11/05 09:12:36;;;;;;;9.60;1.13;;;9.60;99.90;;;;;;5053391;28;20044;-69
2021/11/05 09:15:03;;;;;;;4.93;0.70;;;9.70;99.90;;;;;;5053963;28;20083;-69
2021/11/05 09:17:29;;;;;;;9.90;1.00;;;9.70;99.90;;;;;;5053731;28;20095;-69
2021/11/05 09:19:55;;;;;;;6.13;0.60;;;9.80;99.90;;;;;;5051445;28;20044;-69
2021/11/05 09:22:21;;;;;;;10.55;0.90;;;9.80;99.90;;;;;;5052429;28;20143;-69
2021/11/05 09:24:46;;;;;;;6.82;1.10;;;9.90;99.90;;;;;;5052490;28;20114;-69
2021/11/05 09:27:13;;;;;;;6.85;1.27;;;10.00;99.90;;;;;;5053172;28;20391;-70
2021/11/05 09:29:40;;;;;;;5.57;0.77;;;10.00;99.90;;;;;;5040285;28;20048;-69
2021/11/05 09:32:06;;;;;;;8.98;1.02;;;10.10;99.90;;;;;;5054627;28;20059;-69
2021/11/05 09:34:32;;;;;;;4.88;0.68;;;10.20;99.90;;;;;;5052726;28;20170;-69
2021/11/05 09:37:00;;;;;;;3.78;0.63;;;10.20;99.90;;;;;;5052812;28;20033;-69
2021/11/05 09:39:26;;;;;;;2.72;0.52;;;10.30;99.90;;;;;;5052811;28;20186;-69
2021/11/05 09:41:52;;;;;;;4.25;0.60;;;10.30;99.90;;;;;;5053644;28;20032;-69
2021/11/05 09:44:19;;;;;;;6.88;0.63;;;10.40;99.90;;;;;;5036084;28;20049;-69
2021/11/05 09:46:53;;;;;;;9.02;0.82;;;10.40;99.90;;;;;;5054724;28;20079;-69
2021/11/05 09:49:19;;;;;;;7.07;0.60;;;10.60;99.90;;;;;;5053432;28;20094;-70
2021/11/05 09:51:45;;;;;;;4.22;0.35;;;10.60;99.90;;;;;;5052187;28;20398;-70
2021/11/05 09:54:18;;;;;;;5.40;0.55;;;10.70;99.90;;;;;;5052286;28;20068;-70
2021/11/05 09:56:46;;;;;;;6.88;0.50;;;10.70;99.90;;;;;;5057664;28;20748;-69
2021/11/05 09:59:12;;;;;;;5.93;0.45;;;10.80;99.90;;;;;;5078230;28;20040;-70
2021/11/05 10:01:41;;;;;;;7.13;1.75;;;10.80;99.90;;;;;;5059295;28;20973;-70
2021/11/05 10:04:08;;;;;;;4.55;0.60;;;10.80;99.90;;;;;;5055998;28;20505;-70
2021/11/05 10:06:34;;;;;;;5.43;1.45;;;10.90;99.90;;;;;;5054688;28;20414;-70
2021/11/05 10:09:00;;;;;;;3.55;0.57;;;10.90;99.90;;;;;;5057261;28;20048;-70
2021/11/05 10:11:29;;;;;;;4.72;0.60;;;10.90;99.90;;;;;;5057955;28;20059;-70
2021/11/05 10:13:56;;;;;;;2.97;0.50;;;10.90;99.90;;;;;;5052787;28;20048;-70
2021/11/05 10:16:24;;;;;;;5.47;2.13;;;10.90;99.90;;;;;;5057729;28;20422;-70
2021/11/05 10:19:09;;;;;;;7.13;0.30;;;10.90;99.90;;;;;;5058477;28;20114;-70
2021/11/05 10:21:43;;;;;;;2.97;0.40;;;10.90;99.90;;;;;;5059601;28;20383;-70
2021/11/05 10:24:21;;;;;;;3.72;0.60;;;11.00;99.90;;;;;;5054755;28;20948;-69
2021/11/05 10:26:48;;;;;;;4.20;0.65;;;11.00;99.90;;;;;;5060356;28;20543;-69
2021/11/05 10:29:29;;;;;;;4.47;0.47;;;11.10;99.90;;;;;;5060029;28;20689;-69
2021/11/05 10:32:06;;;;;;;2.67;0.50;;;11.30;99.90;;;;;;5055614;28;20062;-69
2021/11/05 10:34:54;;;;;;;5.25;0.30;;;11.30;99.90;;;;;;5057622;28;20063;-70
2021/11/05 10:37:28;;;;;;;6.45;1.08;;;11.50;99.90;;;;;;5058176;28;20674;-69
2021/11/05 10:39:56;;;;;;;4.03;0.40;;;11.50;99.90;;;;;;5093282;27;20045;-69
2021/11/05 10:42:40;;;;;;;2.55;0.40;;;11.60;99.90;;;;;;5055939;28;20059;-69
2021/11/05 10:45:24;;;;;;;2.90;0.20;;;11.60;99.90;;;;;;5056812;28;20443;-69
2021/11/05 10:47:53;;;;;;;1.25;0.20;;;11.70;99.90;;;;;;5057145;28;20053;-69
2021/11/05 10:50:23;;;;;;;6.32;0.35;;;11.80;99.90;;;;;;5057621;28;20051;-69
2021/11/05 10:52:59;;;;;;;8.85;0.75;;;12.00;99.90;;;;;;5088361;27;20230;-69
2021/11/05 10:55:38;;;;;;;2.13;0.50;;;12.40;99.90;;;;;;5056257;28;20043;-69
2021/11/05 10:58:06;;;;;;;4.25;0.63;;;12.60;99.90;;;;;;5089120;27;20110;-69
2021/11/05 11:00:33;;;;;;;1.60;0.20;;;12.80;99.90;;;;;;5057500;28;20494;-69
2021/11/05 11:03:09;;;;;;;7.07;0.15;;;13.10;99.90;;;;;;5052546;28;20107;-69
2021/11/05 11:05:35;;;;;;;;;;;13.30;99.90;;;;;;5073928;28;20041;-69
2021/11/05 11:08:02;;;;;;;4.00;0.20;;;13.50;99.90;;;;;;5060220;28;19950;-69
2021/11/05 11:10:30;;;;;;;5.78;0.43;;;13.50;99.90;;;;;;5054336;28;20090;-69
2021/11/05 11:12:56;;;;;;;4.18;0.63;;;13.40;99.90;;;;;;5057548;28;20084;-69
2021/11/05 11:15:36;;;;;;;4.53;0.75;;;13.30;99.90;;;;;;5057818;28;20109;-69
2021/11/05 11:18:04;;;;;;;2.00;1.02;;;13.10;99.90;;;;;;5056997;28;20044;-69
2021/11/05 11:20:32;;;;;;;6.75;0.55;;;12.90;99.90;;;;;;5055133;28;20135;-69
2021/11/05 11:22:58;;;;;;;2.95;0.22;;;12.80;99.90;;;;;;5054382;28;20048;-69
2021/11/05 11:25:24;;;;;;;1.20;0.20;;;12.70;99.90;;;;;;5056014;28;20517;-69
2021/11/05 11:27:49;;;;;;;3.65;0.75;;;12.50;99.90;;;;;;5056889;28;20068;-69
2021/11/05 11:30:18;;;;;;;2.55;0.60;;;12.60;99.90;;;;;;5059416;28;20044;-69
2021/11/05 11:32:49;;;;;;;3.88;0.32;;;12.50;99.90;;;;;;5059899;28;20063;-69
2021/11/05 11:35:15;;;;;;;2.70;0.20;;;12.50;99.90;;;;;;5088450;27;20040;-70
2021/11/05 11:37:42;;;;;;;4.38;0.73;;;12.50;99.90;;;;;;5056178;28;20044;-69
2021/11/05 11:40:09;;;;;;;4.97;0.20;;;12.50;99.90;;;;;;5057006;28;20399;-69
2021/11/05 11:42:36;;;;;;;2.90;0.25;;;12.50;99.90;;;;;;5054260;28;20086;-69
2021/11/05 11:45:07;;;;;;;3.50;0.68;;;12.60;99.90;;;;;;5056769;28;20045;-69
2021/11/05 11:47:49;;;;;;;3.08;0.20;;;12.70;99.90;;;;;;5056170;28;20053;-69
2021/11/05 11:50:23;;;;;;;2.53;0.20;;;12.80;99.90;;;;;;5058255;28;20056;-69
2021/11/05 11:53:09;;;;;;;4.30;0.25;;;12.80;99.90;;;;;;5052578;28;20383;-69
2021/11/05 11:55:38;;;;;;;3.70;0.52;;;12.90;99.90;;;;;;5059053;28;20056;-70
2021/11/05 11:58:16;;;;;;;3.30;0.40;;;12.90;99.90;;;;;;5060497;28;20044;-69
2021/11/05 12:00:44;;;;;;;4.85;0.47;;;12.90;99.90;;;;;;5054931;28;20062;-69
2021/11/05 12:03:13;;;;;;;6.57;0.57;;;12.90;99.90;;;;;;5055182;28;20051;-69
2021/11/05 12:05:42;;;;;;;2.35;0.35;;;12.90;99.90;;;;;;5056228;28;20056;-69
2021/11/05 12:08:34;;;;;;;4.20;0.28;;;12.80;99.90;;;;;;5056362;28;20041;-69
2021/11/05 12:11:06;;;;;;;3.75;0.57;;;12.80;99.90;;;;;;5052126;28;20048;-69
2021/11/05 12:13:35;;;;;;;3.50;0.60;;;12.70;99.90;;;;;;5055910;28;20032;-69
2021/11/05 12:16:23;;;;;;;4.60;0.43;;;12.50;99.90;;;;;;5057212;28;21674;-69
2021/11/05 12:18:58;;;;;;;4.53;1.15;;;12.40;99.90;;;;;;5055396;28;20080;-69
2021/11/05 12:21:27;;;;;;;2.42;0.57;;;12.10;99.90;;;;;;5056486;28;20487;-69
2021/11/05 12:27:01;;;;;;;2.33;0.20;;;12.10;99.90;;;;;;5088901;27;20475;-69
2021/11/05 12:29:33;;;;;;;2.17;0.52;;;12.00;99.90;;;;;;5052091;28;20052;-69
2021/11/05 12:32:02;;;;;;;2.30;0.30;;;12.00;99.90;;;;;;5054800;28;20135;-69
2021/11/05 12:34:35;;;;;;;3.20;0.30;;;11.90;99.90;;;;;;5052100;28;20500;-69
2021/11/05 12:37:04;;;;;;;3.38;0.93;;;11.90;99.90;;;;;;5056195;28;20045;-69
2021/11/05 12:39:35;;;;;;;3.08;0.32;;;11.90;99.90;;;;;;5058675;28;20049;-69
2021/11/05 12:42:10;;;;;;;4.03;0.30;;;12.00;99.90;;;;;;5053647;28;20068;-69
2021/11/05 12:45:06;;;;;;;4.60;0.30;;;12.00;99.90;;;;;;5056555;28;20041;-69
2021/11/05 12:47:47;;;;;;;5.72;0.32;;;12.10;99.90;;;;;;5051803;28;20052;-69
2021/11/05 12:50:23;;;;;;;6.95;0.57;;;12.00;99.90;;;;;;5056484;28;20105;-70
2021/11/05 12:53:02;;;;;;;5.38;0.30;;;12.10;99.90;;;;;;5054868;28;20662;-70
2021/11/05 12:55:52;;;;;;;5.78;0.50;;;12.00;99.90;;;;;;5059060;28;20048;-70
2021/11/05 12:58:19;;;;;;;3.20;0.30;;;12.10;99.90;;;;;;5055666;28;20128;-69